createdAt,value
2017-05-08T00:01:48.772Z,13.35
2017-05-08T00:04:16.329Z,13.72
2017-05-08T00:06:43.820Z,13.63
2017-05-08T00:09:12.123Z,12.45
2017-05-08T00:11:40.766Z,12.70
2017-05-08T00:14:08.292Z,13.48
2017-05-08T00:16:36.862Z,13.47
2017-05-08T00:19:05.381Z,12.03
2017-05-08T00:21:32.883Z,11.20
2017-05-08T00:24:01.440Z,13.23
2017-05-08T00:26:30.819Z,13.13
2017-05-08T00:28:59.336Z,14.40
2017-05-08T00:31:27.628Z,13.40
2017-05-08T00:33:55.907Z,12.68
2017-05-08T00:36:24.526Z,12.23
2017-05-08T00:38:52.847Z,11.72
2017-05-08T00:41:21.485Z,11.83
2017-05-08T00:43:49.758Z,12.08
2017-05-08T00:46:18.048Z,13.43
2017-05-08T00:48:46.338Z,12.63
2017-05-08T00:51:14.677Z,12.98
2017-05-08T00:53:42.993Z,13.55
2017-05-08T00:56:10.823Z,16.35
2017-05-08T00:58:38.320Z,17.15
2017-05-08T01:01:06.603Z,16.55
2017-05-08T01:03:34.920Z,15.30
2017-05-08T01:06:03.243Z,14.48
2017-05-08T01:08:30.743Z,15.23
2017-05-08T01:10:58.293Z,15.00
2017-05-08T01:13:26.080Z,15.27
2017-05-08T01:15:54.364Z,14.87
2017-05-08T01:18:21.883Z,14.92
2017-05-08T01:20:49.682Z,13.27
2017-05-08T01:23:17.984Z,14.17
2017-05-08T01:25:46.984Z,16.02
2017-05-08T01:28:15.353Z,19.27
2017-05-08T01:30:42.894Z,18.63
2017-05-08T01:33:10.490Z,18.00
2017-05-08T01:35:38.774Z,17.45
2017-05-08T01:38:07.071Z,15.65
2017-05-08T01:40:35.332Z,16.93
2017-05-08T01:43:02.905Z,18.48
2017-05-08T01:45:31.188Z,17.17
2017-05-08T01:47:58.779Z,19.06
2017-05-08T01:50:27.785Z,16.65
2017-05-08T01:52:56.153Z,16.48
2017-05-08T01:55:25.516Z,15.68
2017-05-08T01:57:54.051Z,18.13
2017-05-08T02:00:21.572Z,16.12
2017-05-08T02:02:49.115Z,16.33
2017-05-08T02:05:17.375Z,16.77
2017-05-08T02:07:44.898Z,17.82
2017-05-08T02:10:13.183Z,17.38
2017-05-08T02:12:41.464Z,16.32
2017-05-08T02:15:09.028Z,16.93
2017-05-08T02:17:36.813Z,16.12
2017-05-08T02:20:04.579Z,18.10
2017-05-08T02:22:32.072Z,16.88
2017-05-08T02:25:01.124Z,17.95
2017-05-08T02:27:28.620Z,18.53
2017-05-08T02:29:56.208Z,17.92
2017-05-08T02:32:24.523Z,18.35
2017-05-08T02:34:52.124Z,16.75
2017-05-08T02:37:20.393Z,16.48
2017-05-08T02:39:48.801Z,14.82
2017-05-08T02:42:17.091Z,15.98
2017-05-08T02:44:45.680Z,16.95
2017-05-08T02:47:13.444Z,16.80
2017-05-08T02:49:40.956Z,16.02
2017-05-08T02:52:09.299Z,15.10
2017-05-08T02:54:36.846Z,17.75
2017-05-08T02:57:04.353Z,17.28
2017-05-08T02:59:32.635Z,16.05
2017-05-08T03:02:00.427Z,14.92
2017-05-08T03:04:27.925Z,14.23
2017-05-08T03:06:55.497Z,15.58
2017-05-08T03:09:23.824Z,14.95
2017-05-08T03:11:51.399Z,14.30
2017-05-08T03:14:20.395Z,15.98
2017-05-08T03:16:49.476Z,15.03
2017-05-08T03:19:17.987Z,16.38
2017-05-08T03:21:46.308Z,15.95
2017-05-08T03:24:13.809Z,16.12
2017-05-08T03:26:41.369Z,16.68
2017-05-08T03:29:09.704Z,15.45
2017-05-08T03:31:37.369Z,16.83
2017-05-08T03:34:04.865Z,15.65
2017-05-08T03:36:32.715Z,15.32
2017-05-08T03:39:00.258Z,15.52
2017-05-08T03:41:28.031Z,16.85
2017-05-08T03:43:57.039Z,18.88
2017-05-08T03:46:25.417Z,16.32
2017-05-08T03:48:53.958Z,15.63
2017-05-08T03:51:21.475Z,15.88
2017-05-08T03:53:48.986Z,15.53
2017-05-08T03:56:16.576Z,15.52
2017-05-08T03:58:44.830Z,16.03
2017-05-08T04:01:14.118Z,15.60
2017-05-08T04:03:41.741Z,16.75
2017-05-08T04:06:10.115Z,16.22
2017-05-08T04:08:38.379Z,19.48
2017-05-08T04:11:05.927Z,22.52
2017-05-08T04:13:34.200Z,16.13
2017-05-08T04:16:02.460Z,17.03
2017-05-08T04:18:30.842Z,17.70
2017-05-08T04:20:59.107Z,20.55
2017-05-08T04:23:27.391Z,17.27
2017-05-08T04:25:55.923Z,20.40
2017-05-08T04:28:24.237Z,16.97
2017-05-08T04:30:52.628Z,15.43
2017-05-08T04:33:20.919Z,15.17
2017-05-08T04:35:49.183Z,16.37
2017-05-08T04:38:17.810Z,16.65
2017-05-08T04:40:46.103Z,14.45
2017-05-08T04:43:13.660Z,15.42
2017-05-08T04:45:41.163Z,13.60
2017-05-08T04:48:09.452Z,16.55
2017-05-08T04:50:37.799Z,16.27
2017-05-08T04:53:06.124Z,14.65
2017-05-08T04:55:33.632Z,14.52
2017-05-08T04:58:01.958Z,14.48
2017-05-08T05:00:29.518Z,14.88
2017-05-08T05:02:57.283Z,15.62
2017-05-08T05:05:25.543Z,15.27
2017-05-08T05:07:53.075Z,16.20
2017-05-08T05:10:20.570Z,19.13
2017-05-08T05:12:49.139Z,28.05
2017-05-08T05:15:17.440Z,27.90
2017-05-08T05:17:46.495Z,29.48
2017-05-08T05:20:13.997Z,29.97
2017-05-08T05:22:41.548Z,30.08
2017-05-08T05:25:09.085Z,31.45
2017-05-08T05:27:36.948Z,30.65
2017-05-08T05:30:08.219Z,30.13
2017-05-08T05:32:37.252Z,31.23
2017-05-08T05:35:05.953Z,33.67
2017-05-08T05:37:33.476Z,32.95
2017-05-08T05:40:01.809Z,31.35
2017-05-08T05:42:29.564Z,33.13
2017-05-08T05:44:57.833Z,34.32
2017-05-08T05:47:25.700Z,33.95
2017-05-08T05:49:53.205Z,34.37
2017-05-08T05:52:21.544Z,35.37
2017-05-08T05:54:49.863Z,33.95
2017-05-08T05:57:18.271Z,29.25
2017-05-08T05:59:46.054Z,28.70
2017-05-08T06:02:13.557Z,30.98
2017-05-08T06:04:41.848Z,30.47
2017-05-08T06:07:09.415Z,32.92
2017-05-08T06:09:37.035Z,34.13
2017-05-08T06:12:05.343Z,34.98
2017-05-08T06:14:33.156Z,34.72
2017-05-08T06:17:00.812Z,31.53
2017-05-08T06:19:28.359Z,30.30
2017-05-08T06:21:55.907Z,33.57
2017-05-08T06:24:23.484Z,35.38
2017-05-08T06:26:51.025Z,36.32
2017-05-08T06:29:18.553Z,39.20
2017-05-08T06:31:46.060Z,39.30
2017-05-08T06:34:13.580Z,40.72
2017-05-08T06:36:41.850Z,44.15
2017-05-08T06:39:09.436Z,45.55
2017-05-08T06:41:37.187Z,45.50
2017-05-08T06:44:04.750Z,45.22
2017-05-08T06:46:33.010Z,39.35
2017-05-08T06:49:00.787Z,34.37
2017-05-08T06:51:28.347Z,33.52
2017-05-08T06:53:56.608Z,29.02
2017-05-08T06:56:24.196Z,27.60
2017-05-08T06:58:51.927Z,26.45
2017-05-08T07:01:20.235Z,23.93
2017-05-08T07:03:47.730Z,22.97
2017-05-08T07:06:16.052Z,23.62
2017-05-08T07:08:43.808Z,22.87
2017-05-08T07:11:12.388Z,22.30
2017-05-08T07:13:40.733Z,20.70
2017-05-08T07:16:09.011Z,18.87
2017-05-08T07:18:37.303Z,21.82
2017-05-08T07:21:04.867Z,20.68
2017-05-08T07:23:33.484Z,20.38
2017-05-08T07:26:01.809Z,21.48
2017-05-08T07:28:29.576Z,18.55
2017-05-08T07:30:58.199Z,17.82
2017-05-08T07:33:25.760Z,19.32
2017-05-08T07:35:53.284Z,21.32
2017-05-08T07:38:20.996Z,21.80
2017-05-08T07:40:49.344Z,19.88
2017-05-08T07:43:16.945Z,21.03
2017-05-08T07:45:44.541Z,21.00
2017-05-08T07:48:12.802Z,21.73
2017-05-08T07:50:40.342Z,23.35
2017-05-08T07:53:07.904Z,23.52
2017-05-08T07:55:35.454Z,24.95
2017-05-08T07:58:02.968Z,24.13
2017-05-08T08:00:31.969Z,22.13
2017-05-08T08:02:59.824Z,18.58
2017-05-08T08:05:27.574Z,17.12
2017-05-08T08:07:55.096Z,15.12
2017-05-08T08:10:24.018Z,17.48
2017-05-08T08:12:52.301Z,21.13
2017-05-08T08:15:20.647Z,21.18
2017-05-08T08:17:48.171Z,24.93
2017-05-08T08:20:16.489Z,27.60
2017-05-08T08:22:44.787Z,29.62
2017-05-08T08:25:13.055Z,30.33
2017-05-08T08:27:40.628Z,29.07
2017-05-08T08:30:08.136Z,32.85
2017-05-08T08:32:36.432Z,33.02
2017-05-08T08:35:04.696Z,33.18
2017-05-08T08:37:32.468Z,31.30
2017-05-08T08:40:01.047Z,30.33
2017-05-08T08:42:28.631Z,27.18
2017-05-08T08:44:57.627Z,28.33
2017-05-08T08:47:25.435Z,28.50
2017-05-08T08:49:53.277Z,31.82
2017-05-08T08:52:21.654Z,27.90
2017-05-08T08:54:50.000Z,28.83
2017-05-08T08:57:17.790Z,27.27
2017-05-08T08:59:46.319Z,31.52
2017-05-08T09:02:14.085Z,32.13
2017-05-08T09:04:42.390Z,38.87
2017-05-08T09:07:11.404Z,44.18
2017-05-08T09:09:39.704Z,47.95
2017-05-08T09:12:08.016Z,50.13
2017-05-08T09:14:35.584Z,45.73
2017-05-08T09:17:03.099Z,50.60
2017-05-08T09:19:31.482Z,54.18
2017-05-08T09:21:59.020Z,49.12
2017-05-08T09:24:27.353Z,45.32
2017-05-08T09:26:54.915Z,42.52
2017-05-08T09:29:23.180Z,37.02
2017-05-08T09:31:51.024Z,39.95
2017-05-08T09:34:19.284Z,40.83
2017-05-08T09:36:46.840Z,37.92
2017-05-08T09:39:15.352Z,44.53
2017-05-08T09:41:42.900Z,45.87
2017-05-08T09:44:10.478Z,47.02
2017-05-08T09:46:37.988Z,40.32
2017-05-08T09:49:06.353Z,38.03
2017-05-08T09:51:33.908Z,40.12
2017-05-08T09:54:01.867Z,38.82
2017-05-08T09:56:30.164Z,39.77
2017-05-08T09:58:58.525Z,44.32
2017-05-08T10:01:27.240Z,41.60
2017-05-08T10:03:54.868Z,44.28
2017-05-08T10:06:22.584Z,39.37
2017-05-08T10:08:50.356Z,38.42
2017-05-08T10:11:19.372Z,39.57
2017-05-08T10:13:47.765Z,38.97
2017-05-08T10:16:15.275Z,35.43
2017-05-08T10:18:42.805Z,35.75
2017-05-08T10:21:10.571Z,35.00
2017-05-08T10:23:38.087Z,33.25
2017-05-08T10:26:06.607Z,34.30
2017-05-08T10:28:34.160Z,31.73
2017-05-08T10:31:01.653Z,31.50
2017-05-08T10:33:29.224Z,30.28
2017-05-08T10:35:57.043Z,29.97
2017-05-08T10:38:24.564Z,30.30
2017-05-08T10:40:52.099Z,30.30
2017-05-08T10:43:19.734Z,32.07
2017-05-08T10:45:47.231Z,31.50
2017-05-08T10:48:15.607Z,33.62
2017-05-08T10:50:43.891Z,32.58
2017-05-08T10:53:11.411Z,33.90
2017-05-08T10:55:38.949Z,33.13
2017-05-08T10:58:06.467Z,31.35
2017-05-08T11:00:34.727Z,34.15
2017-05-08T11:03:03.033Z,35.52
2017-05-08T11:05:31.336Z,32.93
2017-05-08T11:07:59.655Z,34.33
2017-05-08T11:10:28.137Z,30.78
2017-05-08T11:12:56.616Z,32.27
2017-05-08T11:15:24.233Z,31.75
2017-05-08T11:17:52.726Z,30.12
2017-05-08T11:20:20.280Z,26.37
2017-05-08T11:22:48.543Z,27.48
2017-05-08T11:25:16.832Z,31.87
2017-05-08T11:27:44.376Z,31.43
2017-05-08T11:30:12.711Z,29.55
2017-05-08T11:32:40.221Z,28.85
2017-05-08T11:35:07.756Z,31.53
2017-05-08T11:37:35.397Z,32.70
2017-05-08T11:40:02.916Z,30.12
2017-05-08T11:42:30.470Z,34.78
2017-05-08T11:44:58.802Z,36.30
2017-05-08T11:47:26.304Z,30.03
2017-05-08T11:49:54.835Z,34.77
2017-05-08T11:52:22.352Z,32.80
2017-05-08T11:54:50.636Z,32.27
2017-05-08T11:57:18.915Z,32.82
2017-05-08T11:59:48.228Z,34.95
2017-05-08T12:02:15.800Z,30.77
2017-05-08T12:04:44.375Z,32.22
2017-05-08T12:07:11.934Z,31.47
2017-05-08T12:09:39.463Z,34.90
2017-05-08T12:12:07.048Z,33.87
2017-05-08T12:14:34.545Z,32.77
2017-05-08T12:17:02.112Z,31.08
2017-05-08T12:19:30.385Z,31.67
2017-05-08T12:21:58.682Z,31.17
2017-05-08T12:24:26.974Z,26.92
2017-05-08T12:26:54.518Z,29.38
2017-05-08T12:29:22.775Z,30.50
2017-05-08T12:31:52.338Z,30.02
2017-05-08T12:36:56.664Z,26.67
2017-05-08T12:39:26.874Z,25.37
2017-05-08T12:41:55.257Z,28.72
2017-05-08T12:44:22.820Z,31.93
2017-05-08T12:46:51.910Z,30.45
2017-05-08T12:49:20.836Z,31.55
2017-05-08T12:51:49.283Z,32.25
2017-05-08T12:54:24.809Z,35.00
2017-05-08T12:56:54.863Z,30.17
2017-05-08T12:59:23.809Z,33.43
2017-05-08T13:01:51.660Z,31.48
2017-05-08T13:04:19.897Z,33.08
2017-05-08T13:06:47.519Z,31.85
2017-05-08T13:09:15.082Z,32.90
2017-05-08T13:11:43.343Z,31.38
2017-05-08T13:14:11.139Z,30.50
2017-05-08T13:16:38.976Z,32.33
2017-05-08T13:19:06.500Z,33.18
2017-05-08T13:21:34.073Z,33.70
2017-05-08T13:24:02.384Z,35.26
2017-05-08T13:26:30.127Z,31.68
2017-05-08T13:28:57.639Z,33.15
2017-05-08T13:31:25.916Z,31.98
2017-05-08T13:33:54.344Z,30.25
2017-05-08T13:36:22.100Z,30.15
2017-05-08T13:38:49.615Z,32.17
2017-05-08T13:41:18.140Z,32.07
2017-05-08T13:43:46.427Z,29.70
2017-05-08T13:46:13.959Z,28.00
2017-05-08T13:48:41.600Z,30.28
2017-05-08T13:51:09.864Z,31.02
2017-05-08T13:53:38.251Z,31.28
2017-05-08T13:56:05.772Z,32.15
2017-05-08T13:58:34.077Z,30.08
2017-05-08T14:01:01.604Z,31.15
2017-05-08T14:03:29.123Z,29.15
2017-05-08T14:05:56.715Z,30.88
2017-05-08T14:08:24.251Z,31.85
2017-05-08T14:10:51.821Z,31.03
2017-05-08T14:13:19.665Z,28.83
2017-05-08T14:15:47.933Z,29.32
2017-05-08T14:18:15.700Z,30.08
2017-05-08T14:20:43.232Z,27.10
2017-05-08T14:23:11.584Z,27.33
2017-05-08T14:25:39.916Z,30.32
2017-05-08T14:28:07.510Z,28.95
2017-05-08T14:30:35.834Z,24.13
2017-05-08T14:33:03.326Z,22.85
2017-05-08T14:35:31.184Z,20.87
2017-05-08T14:37:59.750Z,22.82
2017-05-08T14:42:50.344Z,21.95
2017-05-08T14:45:17.913Z,22.35
2017-05-08T14:47:46.172Z,21.30
2017-05-08T14:50:13.687Z,23.85
2017-05-08T14:52:41.944Z,19.27
2017-05-08T14:55:11.053Z,19.60
2017-05-08T14:57:39.348Z,20.38
2017-05-08T15:00:07.622Z,17.82
2017-05-08T15:02:36.007Z,15.68
2017-05-08T15:05:04.620Z,15.15
2017-05-08T15:07:32.233Z,17.22
2017-05-08T15:10:00.699Z,15.15
2017-05-08T15:12:28.523Z,13.47
2017-05-08T15:14:56.022Z,13.35
2017-05-08T15:17:24.347Z,11.83
2017-05-08T15:19:51.881Z,11.82
2017-05-08T15:22:19.442Z,10.97
2017-05-08T15:24:48.060Z,12.13
2017-05-08T15:27:15.555Z,13.17
2017-05-08T15:29:44.089Z,11.53
2017-05-08T15:32:15.056Z,11.83
2017-05-08T15:34:43.375Z,12.85
2017-05-08T15:37:10.876Z,11.03
2017-05-08T15:39:40.214Z,11.15
2017-05-08T15:42:08.476Z,10.30
2017-05-08T15:44:36.819Z,11.07
2017-05-08T15:47:04.396Z,12.57
2017-05-08T15:49:31.931Z,14.48
2017-05-08T15:52:00.260Z,11.47
2017-05-08T15:54:28.617Z,12.32
2017-05-08T15:56:56.937Z,10.95
2017-05-08T15:59:25.204Z,13.00
2017-05-08T16:01:52.733Z,11.57
2017-05-08T16:04:21.884Z,11.37
2017-05-08T16:06:49.399Z,14.20
2017-05-08T16:09:17.732Z,13.73
2017-05-08T16:11:46.879Z,13.93
2017-05-08T16:14:14.388Z,17.02
2017-05-08T16:16:43.445Z,15.05
2017-05-08T16:19:10.967Z,13.43
2017-05-08T16:21:39.591Z,14.57
2017-05-08T16:24:07.855Z,16.75
2017-05-08T16:26:37.418Z,16.32
2017-05-08T16:29:05.088Z,16.43
2017-05-08T16:31:40.266Z,16.67
2017-05-08T16:34:08.965Z,15.23
2017-05-08T16:36:36.803Z,16.13
2017-05-08T16:39:04.890Z,16.62
2017-05-08T16:41:42.374Z,17.47
2017-05-08T16:44:11.661Z,17.43
2017-05-08T16:46:42.091Z,15.48
2017-05-08T16:49:09.814Z,13.90
2017-05-08T16:51:41.730Z,15.93
2017-05-08T16:54:10.667Z,15.65
2017-05-08T16:56:39.097Z,16.78
2017-05-08T16:59:10.356Z,17.32
2017-05-08T17:01:40.482Z,15.37
2017-05-08T17:04:15.225Z,15.15
2017-05-08T17:06:42.972Z,16.30
2017-05-08T17:09:12.474Z,16.73
2017-05-08T17:11:41.562Z,17.37
2017-05-08T17:14:16.992Z,16.80
2017-05-08T17:16:47.093Z,16.77
2017-05-08T17:19:15.432Z,16.12
2017-05-08T17:21:51.535Z,14.80
2017-05-08T17:24:20.089Z,14.48
2017-05-08T17:26:48.803Z,15.13
2017-05-08T17:29:22.981Z,15.67
2017-05-08T17:31:51.283Z,16.87
2017-05-08T17:34:30.915Z,14.87
2017-05-08T17:37:00.323Z,15.40
2017-05-08T17:39:29.200Z,17.78
2017-05-08T17:41:56.840Z,17.08
2017-05-08T17:44:25.363Z,16.40
2017-05-08T17:46:53.819Z,18.03
2017-05-08T17:49:21.380Z,16.23
2017-05-08T17:51:49.615Z,14.10
2017-05-08T17:54:18.388Z,16.00
2017-05-08T17:56:48.373Z,14.28
2017-05-08T17:59:19.496Z,14.02
2017-05-08T18:01:47.215Z,12.40
2017-05-08T18:04:15.784Z,12.18
2017-05-08T18:06:44.836Z,13.12
2017-05-08T18:09:12.705Z,10.62
2017-05-08T18:11:40.227Z,12.22
2017-05-08T18:14:08.529Z,10.75
2017-05-08T18:16:36.844Z,10.28
2017-05-08T18:19:04.387Z,9.12
2017-05-08T18:21:32.242Z,8.57
2017-05-08T18:24:00.517Z,7.30
2017-05-08T18:26:28.073Z,7.28
2017-05-08T18:28:56.628Z,5.22
2017-05-08T18:31:25.011Z,6.30
2017-05-08T18:33:53.060Z,5.32
2017-05-08T18:36:21.348Z,6.58
2017-05-08T18:38:48.835Z,7.47
2017-05-08T18:41:16.618Z,6.93
2017-05-08T18:43:44.173Z,9.08
2017-05-08T18:46:13.259Z,9.97
2017-05-08T18:48:40.795Z,9.55
2017-05-08T18:51:09.175Z,9.52
2017-05-08T18:53:37.528Z,7.77
2017-05-08T18:56:05.836Z,5.47
2017-05-08T18:58:33.380Z,4.15
2017-05-08T19:01:00.917Z,5.15
2017-05-08T19:03:29.252Z,4.40
2017-05-08T19:05:57.187Z,3.52
2017-05-08T19:08:24.952Z,3.58
2017-05-08T19:10:53.317Z,2.97
2017-05-08T19:13:21.579Z,4.27
2017-05-08T19:15:49.170Z,3.17
2017-05-08T19:18:17.451Z,1.93
2017-05-08T19:20:46.479Z,2.10
2017-05-08T19:23:14.740Z,1.52
2017-05-08T19:25:43.003Z,1.53
2017-05-08T19:30:49.990Z,1.15
2017-05-08T19:33:18.366Z,1.72
2017-05-08T19:35:45.895Z,1.60
2017-05-08T19:38:13.403Z,1.20
2017-05-08T19:40:41.659Z,1.65
2017-05-08T19:43:09.181Z,1.27
2017-05-08T19:45:37.438Z,1.98
2017-05-08T19:48:05.216Z,1.72
2017-05-08T19:50:32.767Z,1.78
2017-05-08T19:53:00.281Z,1.28
2017-05-08T19:55:31.606Z,1.08
2017-05-08T19:58:00.164Z,1.54
2017-05-08T20:00:27.824Z,1.35
2017-05-08T20:02:55.431Z,1.28
2017-05-08T20:05:23.730Z,1.22
2017-05-08T20:07:51.517Z,1.27
2017-05-08T20:10:19.055Z,1.63
2017-05-08T20:12:47.364Z,1.28
2017-05-08T20:15:15.214Z,1.62
2017-05-08T20:17:42.775Z,1.83
2017-05-08T20:20:11.354Z,1.90
2017-05-08T20:22:38.924Z,1.80
2017-05-08T20:25:06.419Z,1.78
2017-05-08T20:27:35.156Z,2.57
2017-05-08T20:30:03.491Z,2.52
2017-05-08T20:32:32.001Z,2.47
2017-05-08T20:34:59.540Z,2.53
2017-05-08T20:37:27.850Z,2.77
2017-05-08T20:39:55.422Z,2.73
2017-05-08T20:42:22.954Z,2.77
2017-05-08T20:44:50.522Z,2.43
2017-05-08T20:47:18.159Z,3.14
2017-05-08T20:49:45.725Z,2.77
2017-05-08T20:52:13.979Z,3.33
2017-05-08T20:54:41.525Z,3.33
2017-05-08T20:57:09.023Z,3.40
2017-05-08T20:59:36.885Z,2.87
2017-05-08T21:02:07.220Z,3.48
2017-05-08T21:04:38.257Z,3.20
2017-05-08T21:07:07.120Z,3.63
2017-05-08T21:09:37.547Z,5.33
2017-05-08T21:12:07.658Z,4.33
2017-05-08T21:14:38.474Z,4.40
2017-05-08T21:17:06.023Z,5.07
2017-05-08T21:19:33.631Z,4.88
2017-05-08T21:22:01.159Z,3.82
2017-05-08T21:24:28.787Z,3.72
2017-05-08T21:26:57.044Z,5.07
2017-05-08T21:29:24.877Z,4.58
2017-05-08T21:31:52.770Z,4.57
2017-05-08T21:34:21.803Z,3.93
2017-05-08T21:36:49.317Z,3.57
2017-05-08T21:39:16.850Z,3.38
2017-05-08T21:41:44.376Z,4.38
2017-05-08T21:44:12.951Z,3.45
2017-05-08T21:46:41.352Z,3.47
2017-05-08T21:49:08.851Z,3.25
2017-05-08T21:51:37.924Z,4.43
2017-05-08T21:54:05.780Z,5.20
2017-05-08T21:56:33.416Z,5.48
2017-05-08T21:59:01.205Z,6.35
2017-05-08T22:01:28.799Z,5.33
2017-05-08T22:03:56.293Z,5.72
2017-05-08T22:06:23.818Z,6.07
2017-05-08T22:08:52.368Z,6.50
2017-05-08T22:11:20.116Z,4.97
2017-05-08T22:13:47.618Z,4.88
2017-05-08T22:16:15.919Z,5.80
2017-05-08T22:18:43.412Z,5.10
2017-05-08T22:21:10.936Z,6.05
2017-05-08T22:23:39.265Z,5.70
2017-05-08T22:26:07.864Z,6.63
2017-05-08T22:28:35.707Z,6.73
2017-05-08T22:31:03.192Z,6.60
2017-05-08T22:33:31.718Z,6.25
2017-05-08T22:35:59.216Z,6.20
2017-05-08T22:38:27.531Z,6.87
2017-05-08T22:40:55.097Z,6.63
2017-05-08T22:43:23.423Z,6.37
2017-05-08T22:45:51.247Z,6.65
2017-05-08T22:48:18.865Z,7.57
2017-05-08T22:50:47.156Z,5.90
2017-05-08T22:53:14.681Z,8.13
2017-05-08T22:55:42.225Z,7.10
2017-05-08T22:58:09.798Z,6.98
2017-05-08T23:00:37.298Z,7.37
2017-05-08T23:03:04.809Z,6.75
2017-05-08T23:05:32.343Z,7.43
2017-05-08T23:08:00.905Z,7.67
2017-05-08T23:10:29.196Z,7.25
2017-05-08T23:12:56.709Z,7.77
2017-05-08T23:15:25.021Z,6.97
2017-05-08T23:17:52.601Z,8.03
2017-05-08T23:20:20.914Z,8.32
2017-05-08T23:22:48.421Z,7.90
2017-05-08T23:25:15.916Z,7.88
2017-05-08T23:27:44.252Z,7.77
2017-05-08T23:30:11.746Z,7.90
2017-05-08T23:32:40.376Z,6.47
2017-05-08T23:35:07.879Z,8.42
2017-05-08T23:37:36.199Z,8.15
2017-05-08T23:40:03.701Z,8.85
2017-05-08T23:42:31.527Z,8.12
2017-05-08T23:44:59.804Z,7.78
2017-05-08T23:47:27.384Z,8.45
2017-05-08T23:49:54.916Z,8.92
2017-05-08T23:52:22.480Z,8.58
2017-05-08T23:54:50.783Z,8.14
2017-05-08T23:57:18.423Z,8.68
2017-05-08T23:59:46.692Z,8.22
